createdAt,value
2022-12-25T00:01:15.229Z,100.00
2022-12-25T00:03:42.527Z,100.00
2022-12-25T00:06:10.112Z,100.00
2022-12-25T00:08:38.636Z,100.00
2022-12-25T00:11:09.024Z,100.00
2022-12-25T00:13:36.030Z,100.00
2022-12-25T00:16:13.143Z,100.00
2022-12-25T00:18:40.101Z,100.00
2022-12-25T00:21:07.536Z,100.00
2022-12-25T00:23:35.624Z,100.00
2022-12-25T00:26:07.778Z,100.00
2022-12-25T00:28:36.294Z,100.00
2022-12-25T00:31:14.899Z,100.00
2022-12-25T00:33:46.110Z,100.00
2022-12-25T00:36:14.593Z,100.00
2022-12-25T00:38:42.466Z,100.00
2022-12-25T00:41:39.207Z,100.00
2022-12-25T00:44:07.617Z,100.00
2022-12-25T00:46:34.704Z,100.00
2022-12-25T00:49:01.978Z,100.00
2022-12-25T00:51:28.864Z,100.00
2022-12-25T00:53:55.739Z,100.00
2022-12-25T00:56:23.067Z,100.00
2022-12-25T00:58:50.242Z,100.00
2022-12-25T01:01:17.613Z,100.00
2022-12-25T01:03:44.634Z,100.00
2022-12-25T01:06:13.145Z,99.76
2022-12-25T01:08:59.871Z,100.00
2022-12-25T01:11:27.565Z,100.00
2022-12-25T01:13:54.633Z,98.83
2022-12-25T01:16:22.045Z,98.78
2022-12-25T01:18:49.745Z,98.61
2022-12-25T01:21:21.188Z,98.42
2022-12-25T01:23:49.860Z,98.63
2022-12-25T01:26:18.751Z,97.83
2022-12-25T01:28:46.176Z,98.23
2022-12-25T01:31:15.831Z,98.66
2022-12-25T01:33:44.550Z,98.12
2022-12-25T01:36:18.434Z,97.50
2022-12-25T01:38:46.419Z,98.52
2022-12-25T01:41:15.017Z,97.40
2022-12-25T01:44:15.554Z,97.42
2022-12-25T01:46:43.952Z,97.38
2022-12-25T01:49:21.820Z,97.96
2022-12-25T01:51:57.779Z,97.62
2022-12-25T01:54:32.095Z,98.15
2022-12-25T01:57:03.177Z,97.48
2022-12-25T01:59:30.496Z,97.30
2022-12-25T02:01:58.482Z,97.87
2022-12-25T02:04:39.717Z,97.85
2022-12-25T02:07:15.580Z,97.55
2022-12-25T02:09:43.374Z,97.35
2022-12-25T02:12:18.394Z,97.77
2022-12-25T02:14:45.815Z,97.76
2022-12-25T02:17:41.975Z,98.51
2022-12-25T02:20:30.909Z,98.33
2022-12-25T02:23:00.979Z,97.94
2022-12-25T02:25:57.348Z,97.91
2022-12-25T02:28:46.079Z,98.07
2022-12-25T02:31:24.060Z,98.25
2022-12-25T02:34:14.625Z,97.99
2022-12-25T02:36:57.872Z,97.93
2022-12-25T02:39:55.996Z,97.63
2022-12-25T02:42:58.422Z,98.60
2022-12-25T02:45:52.785Z,99.13
2022-12-25T02:48:41.669Z,98.67
2022-12-25T02:51:34.022Z,98.50
2022-12-25T02:54:24.551Z,98.36
2022-12-25T02:57:14.038Z,99.06
2022-12-25T03:00:03.356Z,99.29
2022-12-25T03:02:52.375Z,99.63
2022-12-25T03:05:44.050Z,99.62
2022-12-25T03:08:16.894Z,98.81
2022-12-25T03:11:10.590Z,98.24
2022-12-25T03:13:42.017Z,99.29
2022-12-25T03:16:27.884Z,98.10
2022-12-25T03:18:57.660Z,98.62
2022-12-25T03:21:43.099Z,98.90
2022-12-25T03:24:28.577Z,99.11
2022-12-25T03:26:57.539Z,99.40
2022-12-25T03:29:45.667Z,99.40
2022-12-25T03:32:34.102Z,100.00
2022-12-25T03:35:23.699Z,99.73
2022-12-25T03:38:35.593Z,99.86
2022-12-25T03:41:57.138Z,99.76
2022-12-25T03:45:04.238Z,99.55
2022-12-25T03:48:11.698Z,99.59
2022-12-25T03:51:05.909Z,99.68
2022-12-25T03:54:06.868Z,99.06
2022-12-25T03:56:54.470Z,98.26
2022-12-25T03:59:41.357Z,98.13
2022-12-25T04:02:27.568Z,98.19
2022-12-25T04:05:13.705Z,98.65
2022-12-25T04:07:59.583Z,98.97
2022-12-25T04:10:45.117Z,99.14
2022-12-25T04:13:30.834Z,99.17
2022-12-25T04:16:16.486Z,99.21
2022-12-25T04:19:02.421Z,98.72
2022-12-25T04:21:47.704Z,99.16
2022-12-25T04:24:33.346Z,98.50
2022-12-25T04:27:19.054Z,98.65
2022-12-25T04:30:04.539Z,98.72
2022-12-25T04:32:50.035Z,98.49
2022-12-25T04:35:35.474Z,98.49
2022-12-25T04:38:02.678Z,98.15
2022-12-25T04:40:29.590Z,98.68
2022-12-25T04:42:56.498Z,99.14
2022-12-25T04:45:23.314Z,99.23
2022-12-25T04:55:11.475Z,97.84
2022-12-25T04:57:39.239Z,97.70
2022-12-25T05:00:06.782Z,97.84
2022-12-25T05:02:33.861Z,97.67
2022-12-25T05:05:00.874Z,97.53
2022-12-25T05:07:27.749Z,97.07
2022-12-25T05:09:54.587Z,96.77
2022-12-25T05:12:21.435Z,96.68
2022-12-25T05:14:48.299Z,96.48
2022-12-25T05:17:15.115Z,96.73
2022-12-25T05:19:43.349Z,96.56
2022-12-25T05:22:10.286Z,96.21
2022-12-25T05:24:37.077Z,97.93
2022-12-25T05:27:03.880Z,97.32
2022-12-25T05:29:30.754Z,96.88
2022-12-25T05:31:57.677Z,96.94
2022-12-25T05:34:24.549Z,97.64
2022-12-25T05:36:51.445Z,97.37
2022-12-25T05:39:18.466Z,97.63
2022-12-25T05:41:45.424Z,97.95
2022-12-25T05:44:12.561Z,98.37
2022-12-25T05:46:39.960Z,97.81
2022-12-25T05:49:06.848Z,97.55
2022-12-25T05:51:33.831Z,96.45
2022-12-25T05:54:01.151Z,97.13
2022-12-25T05:56:28.027Z,97.49
2022-12-25T05:58:56.084Z,97.13
2022-12-25T06:01:25.197Z,96.44
2022-12-25T06:03:52.701Z,96.33
2022-12-25T06:06:20.062Z,96.19
2022-12-25T06:08:47.240Z,95.97
2022-12-25T06:11:15.913Z,96.30
2022-12-25T06:13:43.354Z,96.62
2022-12-25T06:16:12.230Z,96.64
2022-12-25T06:18:41.997Z,96.82
2022-12-25T06:21:10.914Z,96.92
2022-12-25T06:23:38.634Z,97.97
2022-12-25T06:26:08.435Z,98.10
2022-12-25T06:28:35.671Z,98.17
2022-12-25T06:31:10.709Z,97.95
2022-12-25T06:33:38.510Z,97.46
2022-12-25T06:36:09.402Z,98.24
2022-12-25T06:38:36.402Z,97.99
2022-12-25T06:41:08.795Z,98.36
2022-12-25T06:43:35.894Z,98.24
2022-12-25T06:46:08.029Z,98.27
2022-12-25T06:48:36.085Z,98.56
2022-12-25T06:51:04.635Z,98.20
2022-12-25T06:53:38.869Z,97.44
2022-12-25T06:56:16.071Z,97.17
2022-12-25T06:58:48.473Z,97.58
2022-12-25T07:01:31.328Z,96.72
2022-12-25T07:04:02.276Z,96.20
2022-12-25T07:06:29.558Z,96.27
2022-12-25T07:08:56.394Z,96.06
2022-12-25T07:11:23.741Z,96.90
2022-12-25T07:13:50.867Z,96.46
2022-12-25T07:16:18.014Z,96.48
2022-12-25T07:18:45.097Z,96.54
2022-12-25T07:21:17.903Z,96.44
2022-12-25T07:23:47.275Z,96.21
2022-12-25T07:26:14.821Z,96.13
2022-12-25T07:28:42.034Z,96.71
2022-12-25T07:31:12.780Z,97.59
2022-12-25T07:33:40.315Z,97.09
2022-12-25T07:36:08.202Z,96.78
2022-12-25T07:38:39.783Z,96.69
2022-12-25T07:41:10.352Z,97.49
2022-12-25T07:43:37.628Z,97.01
2022-12-25T07:46:05.429Z,96.08
2022-12-25T07:48:32.664Z,96.61
2022-12-25T07:51:01.559Z,96.37
2022-12-25T07:53:28.885Z,96.54
2022-12-25T07:55:59.871Z,96.30
2022-12-25T07:58:27.229Z,97.11
2022-12-25T08:00:54.554Z,96.80
2022-12-25T08:03:21.740Z,96.44
2022-12-25T08:05:48.631Z,96.62
2022-12-25T08:08:15.482Z,96.11
2022-12-25T08:10:50.310Z,95.83
2022-12-25T08:13:17.195Z,95.94
2022-12-25T08:15:44.101Z,95.87
2022-12-25T08:18:11.273Z,96.37
2022-12-25T08:20:38.384Z,96.19
2022-12-25T08:23:05.649Z,96.03
2022-12-25T08:25:32.872Z,96.48
2022-12-25T08:28:01.126Z,96.44
2022-12-25T08:30:28.647Z,96.40
2022-12-25T08:32:55.748Z,96.78
2022-12-25T08:35:22.624Z,96.42
2022-12-25T08:37:49.550Z,96.34
2022-12-25T08:40:16.504Z,98.58
2022-12-25T08:42:43.419Z,98.48
2022-12-25T08:45:11.070Z,97.70
2022-12-25T08:47:38.021Z,97.17
2022-12-25T08:50:05.673Z,96.49
2022-12-25T08:52:32.769Z,96.06
2022-12-25T08:54:59.580Z,96.45
2022-12-25T08:57:26.447Z,96.05
2022-12-25T08:59:53.393Z,96.61
2022-12-25T09:02:20.599Z,96.51
2022-12-25T09:04:47.951Z,96.70
2022-12-25T09:07:14.954Z,96.84
2022-12-25T09:09:43.666Z,96.73
2022-12-25T09:12:10.710Z,97.23
2022-12-25T09:14:37.682Z,97.41
2022-12-25T09:17:04.597Z,97.20
2022-12-25T09:19:31.912Z,97.61
2022-12-25T09:21:58.910Z,97.00
2022-12-25T09:24:25.874Z,97.06
2022-12-25T09:26:52.792Z,96.67
2022-12-25T09:29:19.717Z,96.87
2022-12-25T09:31:46.670Z,97.02
2022-12-25T09:34:17.236Z,97.17
2022-12-25T09:36:46.566Z,96.35
2022-12-25T09:39:13.476Z,96.15
2022-12-25T09:41:52.592Z,96.05
2022-12-25T09:44:27.235Z,95.39
2022-12-25T09:47:05.789Z,95.57
2022-12-25T09:49:54.750Z,96.26
2022-12-25T09:52:46.071Z,96.08
2022-12-25T09:55:21.182Z,95.87
2022-12-25T09:58:01.228Z,96.28
2022-12-25T10:00:40.913Z,95.63
2022-12-25T10:03:19.315Z,95.89
2022-12-25T10:06:01.348Z,95.35
2022-12-25T10:08:51.438Z,94.32
2022-12-25T10:11:39.785Z,93.85
2022-12-25T10:14:30.092Z,92.65
2022-12-25T10:17:11.796Z,93.92
2022-12-25T10:20:04.720Z,94.54
2022-12-25T10:22:44.870Z,93.02
2022-12-25T10:25:18.756Z,93.78
2022-12-25T10:27:51.018Z,93.88
2022-12-25T10:30:21.671Z,92.65
2022-12-25T10:32:49.830Z,92.29
2022-12-25T10:35:22.943Z,93.34
2022-12-25T10:37:59.908Z,94.37
2022-12-25T10:40:35.803Z,92.58
2022-12-25T10:43:13.644Z,92.58
2022-12-25T10:45:45.635Z,93.34
2022-12-25T10:48:22.692Z,92.53
2022-12-25T10:50:50.086Z,94.93
2022-12-25T10:53:26.511Z,93.76
2022-12-25T10:56:02.289Z,94.91
2022-12-25T10:58:30.752Z,93.66
2022-12-25T11:01:04.272Z,94.73
2022-12-25T11:03:34.172Z,92.01
2022-12-25T11:06:03.044Z,94.36
2022-12-25T11:08:33.319Z,91.15
2022-12-25T11:11:08.240Z,90.76
2022-12-25T11:13:40.477Z,93.06
2022-12-25T11:16:14.643Z,92.28
2022-12-25T11:18:53.848Z,92.14
2022-12-25T11:21:33.072Z,91.27
2022-12-25T11:24:05.648Z,94.57
2022-12-25T11:26:46.844Z,93.46
2022-12-25T11:29:36.564Z,94.02
2022-12-25T11:32:06.139Z,93.29
2022-12-25T11:34:41.387Z,92.83
2022-12-25T11:37:23.801Z,94.34
2022-12-25T11:39:50.959Z,89.07
2022-12-25T11:42:37.085Z,89.95
2022-12-25T11:45:07.789Z,90.28
2022-12-25T11:47:51.271Z,91.58
2022-12-25T11:50:38.604Z,91.14
2022-12-25T11:53:15.048Z,91.53
2022-12-25T11:55:46.446Z,93.23
2022-12-25T11:58:21.075Z,89.99
2022-12-25T12:00:52.741Z,88.54
2022-12-25T12:03:31.312Z,87.51
2022-12-25T12:06:30.355Z,87.15
2022-12-25T12:09:12.425Z,85.40
2022-12-25T12:11:53.900Z,85.68
2022-12-25T12:14:35.387Z,84.05
2022-12-25T12:17:02.476Z,85.21
2022-12-25T12:19:31.705Z,83.38
2022-12-25T12:22:02.086Z,84.10
2022-12-25T12:24:36.470Z,84.07
2022-12-25T12:27:27.865Z,85.10
2022-12-25T12:29:58.682Z,83.44
2022-12-25T12:32:34.727Z,84.07
2022-12-25T12:35:09.873Z,84.39
2022-12-25T12:37:39.685Z,84.85
2022-12-25T12:40:21.938Z,82.20
2022-12-25T12:42:50.737Z,82.65
2022-12-25T12:45:21.326Z,83.87
2022-12-25T12:47:50.732Z,83.23
2022-12-25T12:50:37.477Z,81.79
2022-12-25T12:53:42.843Z,81.51
2022-12-25T12:56:15.917Z,83.81
2022-12-25T12:58:52.049Z,84.99
2022-12-25T13:01:33.817Z,82.30
2022-12-25T13:04:22.359Z,85.24
2022-12-25T13:07:11.390Z,81.30
2022-12-25T13:09:49.177Z,80.96
2022-12-25T13:12:17.919Z,80.96
2022-12-25T13:14:47.210Z,84.63
2022-12-25T13:17:23.323Z,80.98
2022-12-25T13:19:57.264Z,85.30
2022-12-25T13:22:44.340Z,82.47
2022-12-25T13:25:20.200Z,82.41
2022-12-25T13:27:55.970Z,84.93
2022-12-25T13:30:24.253Z,84.56
2022-12-25T13:32:51.445Z,85.91
2022-12-25T13:35:21.379Z,84.37
2022-12-25T13:37:48.408Z,83.58
2022-12-25T13:40:34.296Z,84.56
2022-12-25T13:43:02.120Z,86.75
2022-12-25T13:45:31.487Z,84.38
2022-12-25T13:47:58.880Z,84.29
2022-12-25T13:50:27.532Z,84.44
2022-12-25T13:52:57.072Z,85.11
2022-12-25T13:55:28.332Z,85.72
2022-12-25T13:58:02.572Z,86.23
2022-12-25T14:00:40.736Z,90.65
2022-12-25T14:03:15.442Z,88.85
2022-12-25T14:05:43.673Z,87.38
2022-12-25T14:08:23.000Z,86.39
2022-12-25T14:10:52.244Z,86.49
2022-12-25T14:13:29.618Z,88.42
2022-12-25T14:16:01.604Z,88.50
2022-12-25T14:18:30.843Z,90.35
2022-12-25T14:21:17.158Z,88.36
2022-12-25T14:27:19.493Z,85.28
2022-12-25T14:30:18.696Z,87.32
2022-12-25T14:32:58.494Z,85.30
2022-12-25T14:35:26.154Z,86.42
2022-12-25T14:41:48.403Z,87.43
2022-12-25T14:44:52.761Z,87.33
2022-12-25T14:51:51.828Z,88.23
2022-12-25T14:54:57.757Z,92.24
2022-12-25T14:58:27.163Z,91.01
2022-12-25T15:05:22.008Z,89.54
2022-12-25T15:12:11.872Z,89.38
2022-12-25T15:14:43.029Z,89.42
2022-12-25T15:17:38.338Z,91.27
2022-12-25T15:20:27.393Z,90.70
2022-12-25T15:23:18.389Z,89.10
2022-12-25T15:26:02.897Z,89.11
2022-12-25T15:29:00.169Z,89.04
2022-12-25T15:31:47.577Z,91.12
2022-12-25T15:34:23.044Z,91.87
2022-12-25T15:36:59.441Z,91.79
2022-12-25T15:39:30.403Z,91.19
2022-12-25T15:42:17.524Z,91.42
2022-12-25T15:44:51.328Z,90.96
2022-12-25T15:47:25.271Z,91.21
2022-12-25T15:49:52.374Z,92.12
2022-12-25T15:52:48.086Z,90.10
2022-12-25T15:58:51.081Z,91.22
2022-12-25T16:01:38.009Z,90.94
2022-12-25T16:04:30.559Z,92.16
2022-12-25T16:07:27.355Z,92.42
2022-12-25T16:10:13.116Z,93.36
2022-12-25T16:12:51.288Z,93.12
2022-12-25T16:15:34.108Z,94.06
2022-12-25T16:18:36.323Z,92.80
2022-12-25T16:21:17.441Z,93.21
2022-12-25T16:23:57.694Z,94.86
2022-12-25T16:26:49.809Z,94.61
2022-12-25T16:32:20.757Z,93.76
2022-12-25T16:35:01.729Z,94.31
2022-12-25T16:37:59.364Z,94.10
2022-12-25T16:40:48.772Z,93.97
2022-12-25T16:43:24.265Z,93.95
2022-12-25T16:45:52.415Z,94.02
2022-12-25T16:48:19.399Z,94.49
2022-12-25T16:50:46.817Z,94.81
2022-12-25T16:53:13.754Z,94.28
2022-12-25T16:55:40.636Z,94.60
2022-12-25T16:58:07.858Z,94.23
2022-12-25T17:00:34.732Z,94.36
2022-12-25T17:03:02.003Z,94.83
2022-12-25T17:05:29.049Z,95.15
2022-12-25T17:07:55.952Z,94.73
2022-12-25T17:10:22.954Z,93.87
2022-12-25T17:12:49.800Z,94.53
2022-12-25T17:15:16.881Z,93.95
2022-12-25T17:17:43.726Z,94.29
2022-12-25T17:20:10.923Z,93.61
2022-12-25T17:22:37.779Z,93.15
2022-12-25T17:25:04.959Z,92.90
2022-12-25T17:27:31.753Z,93.32
2022-12-25T17:29:58.678Z,92.81
2022-12-25T17:32:25.418Z,93.04
2022-12-25T17:34:52.311Z,93.57
2022-12-25T17:37:19.077Z,93.36
2022-12-25T17:39:45.883Z,93.95
2022-12-25T17:42:12.675Z,93.91
2022-12-25T17:44:39.554Z,93.87
2022-12-25T17:47:06.478Z,94.36
2022-12-25T17:49:33.392Z,94.90
2022-12-25T17:52:00.561Z,94.46
2022-12-25T17:54:27.430Z,95.13
2022-12-25T17:56:54.273Z,95.41
2022-12-25T17:59:28.481Z,95.43
2022-12-25T18:01:55.891Z,95.00
2022-12-25T18:04:23.211Z,94.84
2022-12-25T18:06:50.333Z,94.48
2022-12-25T18:09:17.160Z,93.94
2022-12-25T18:11:44.154Z,92.90
2022-12-25T18:14:14.708Z,92.74
2022-12-25T18:16:44.442Z,93.22
2022-12-25T18:19:12.910Z,93.93
2022-12-25T18:21:39.995Z,94.28
2022-12-25T18:24:08.131Z,94.44
2022-12-25T18:26:35.391Z,92.73
2022-12-25T18:29:03.301Z,92.93
2022-12-25T18:31:31.586Z,91.88
2022-12-25T18:33:59.994Z,91.19
2022-12-25T18:36:28.806Z,89.69
2022-12-25T18:38:56.622Z,89.66
2022-12-25T18:41:24.380Z,90.25
2022-12-25T18:43:55.702Z,90.38
2022-12-25T18:46:25.351Z,91.00
2022-12-25T18:48:54.804Z,91.14
2022-12-25T18:51:22.249Z,91.48
2022-12-25T18:53:49.079Z,91.20
2022-12-25T18:56:18.391Z,91.23
2022-12-25T18:58:47.152Z,91.69
2022-12-25T19:01:15.577Z,91.62
2022-12-25T19:03:42.931Z,91.35
2022-12-25T19:06:16.039Z,91.54
2022-12-25T19:08:42.892Z,91.46
2022-12-25T19:11:09.733Z,91.50
2022-12-25T19:13:36.661Z,90.79
2022-12-25T19:16:03.993Z,91.19
2022-12-25T19:18:31.437Z,91.17
2022-12-25T19:21:02.989Z,90.52
2022-12-25T19:23:29.842Z,90.69
2022-12-25T19:25:56.642Z,91.22
2022-12-25T19:28:25.212Z,90.71
2022-12-25T19:30:55.480Z,90.83
2022-12-25T19:33:22.958Z,90.63
2022-12-25T19:35:50.446Z,90.76
2022-12-25T19:38:17.519Z,91.07
2022-12-25T19:41:00.726Z,92.24
2022-12-25T19:43:33.812Z,91.91
2022-12-25T19:46:02.041Z,92.99
2022-12-25T19:48:30.282Z,92.55
2022-12-25T19:50:57.350Z,92.41
2022-12-25T19:53:24.494Z,92.54
2022-12-25T19:55:55.680Z,92.99
2022-12-25T19:58:24.447Z,92.48
2022-12-25T20:01:02.947Z,91.68
2022-12-25T20:03:29.965Z,91.00
2022-12-25T20:05:57.397Z,90.79
2022-12-25T20:08:24.852Z,90.53
2022-12-25T20:10:52.479Z,90.81
2022-12-25T20:13:19.599Z,91.17
2022-12-25T20:15:47.051Z,90.27
2022-12-25T20:18:14.157Z,90.31
2022-12-25T20:20:41.226Z,90.90
2022-12-25T20:23:08.125Z,91.15
2022-12-25T20:25:38.807Z,90.78
2022-12-25T20:28:05.717Z,90.62
2022-12-25T20:30:32.522Z,90.92
2022-12-25T20:32:59.317Z,90.78
2022-12-25T20:35:26.111Z,90.50
2022-12-25T20:37:53.053Z,90.24
2022-12-25T20:40:19.877Z,90.19
2022-12-25T20:42:47.036Z,89.53
2022-12-25T20:45:13.917Z,89.69
2022-12-25T20:47:40.803Z,89.71
2022-12-25T20:50:08.181Z,89.70
2022-12-25T20:52:35.047Z,89.66
2022-12-25T20:55:01.878Z,89.35
2022-12-25T20:57:28.887Z,89.40
2022-12-25T20:59:55.891Z,89.44
2022-12-25T21:02:34.454Z,89.75
2022-12-25T21:05:04.069Z,89.61
2022-12-25T21:07:31.343Z,89.36
2022-12-25T21:09:59.437Z,89.03
2022-12-25T21:12:26.821Z,89.34
2022-12-25T21:14:53.978Z,89.28
2022-12-25T21:17:20.944Z,89.98
2022-12-25T21:19:47.775Z,90.11
2022-12-25T21:22:16.921Z,90.47
2022-12-25T21:24:43.725Z,90.64
2022-12-25T21:27:10.605Z,90.89
2022-12-25T21:29:37.522Z,90.41
2022-12-25T21:32:22.973Z,90.29
2022-12-25T21:34:49.964Z,90.78
2022-12-25T21:37:16.817Z,90.12
2022-12-25T21:39:43.723Z,90.11
2022-12-25T21:42:10.875Z,89.48
2022-12-25T21:44:37.694Z,89.15
2022-12-25T21:47:04.555Z,89.54
2022-12-25T21:49:49.919Z,89.50
2022-12-25T21:52:16.760Z,89.19
2022-12-25T21:54:43.602Z,89.64
2022-12-25T21:57:10.523Z,89.61
2022-12-25T21:59:37.617Z,90.38
2022-12-25T22:02:11.481Z,90.30
2022-12-25T22:04:38.687Z,90.15
2022-12-25T22:07:18.080Z,90.92
2022-12-25T22:09:54.178Z,90.63
2022-12-25T22:12:40.380Z,90.77
2022-12-25T22:15:09.803Z,91.34
2022-12-25T22:17:59.599Z,91.36
2022-12-25T22:20:34.980Z,90.83
2022-12-25T22:23:02.847Z,90.54
2022-12-25T22:25:30.013Z,90.26
2022-12-25T22:27:58.015Z,90.46
2022-12-25T22:30:28.601Z,88.98
2022-12-25T22:32:55.977Z,89.25
2022-12-25T22:35:23.558Z,89.00
2022-12-25T22:37:50.796Z,88.86
2022-12-25T22:40:19.365Z,88.42
2022-12-25T22:42:46.721Z,87.76
2022-12-25T22:45:13.714Z,87.42
2022-12-25T22:47:42.550Z,87.91
2022-12-25T22:50:11.465Z,87.96
2022-12-25T22:52:38.985Z,87.26
2022-12-25T22:55:08.014Z,87.70
2022-12-25T22:57:35.205Z,87.71
2022-12-25T23:00:02.651Z,87.45
2022-12-25T23:02:29.931Z,87.70
2022-12-25T23:04:56.926Z,87.85
2022-12-25T23:07:23.965Z,88.57
2022-12-25T23:09:50.834Z,89.11
2022-12-25T23:12:36.280Z,89.94
2022-12-25T23:15:03.234Z,90.34
2022-12-25T23:17:48.673Z,90.89
2022-12-25T23:20:34.336Z,90.71
2022-12-25T23:23:19.898Z,90.93
2022-12-25T23:26:05.434Z,90.31
2022-12-25T23:28:50.861Z,90.70
2022-12-25T23:31:18.123Z,91.42
2022-12-25T23:33:47.633Z,91.19
2022-12-25T23:36:14.471Z,91.54
2022-12-25T23:38:41.893Z,91.48
2022-12-25T23:41:08.905Z,91.71
2022-12-25T23:43:35.791Z,91.04
2022-12-25T23:46:02.848Z,91.17
2022-12-25T23:48:29.994Z,91.62
2022-12-25T23:50:56.842Z,91.68
2022-12-25T23:53:23.830Z,92.77
2022-12-25T23:55:55.607Z,92.03
2022-12-25T23:58:23.072Z,92.23
